sensor_id;sensor_type;location;lat;lon;timestamp;P1;durP1;ratioP1;P2;durP2;ratioP2
16193;SDS011;8204;53.582;10.080;2022-11-20T00:01:12;7.20;;;5.13;;
16193;SDS011;8204;53.582;10.080;2022-11-20T00:03:42;4.73;;;4.33;;
16193;SDS011;8204;53.582;10.080;2022-11-20T00:06:13;5.40;;;4.60;;
16193;SDS011;8204;53.582;10.080;2022-11-20T00:08:45;4.73;;;4.33;;
16193;SDS011;8204;53.582;10.080;2022-11-20T00:11:15;5.03;;;4.63;;
16193;SDS011;8204;53.582;10.080;2022-11-20T00:13:46;7.13;;;5.27;;
16193;SDS011;8204;53.582;10.080;2022-11-20T00:16:18;5.13;;;4.47;;
16193;SDS011;8204;53.582;10.080;2022-11-20T00:18:47;5.17;;;4.67;;
16193;SDS011;8204;53.582;10.080;2022-11-20T00:21:17;4.50;;;4.20;;
16193;SDS011;8204;53.582;10.080;2022-11-20T00:23:50;4.33;;;3.93;;
16193;SDS011;8204;53.582;10.080;2022-11-20T00:26:20;4.87;;;4.37;;
16193;SDS011;8204;53.582;10.080;2022-11-20T00:28:51;5.00;;;4.53;;
16193;SDS011;8204;53.582;10.080;2022-11-20T00:31:21;5.73;;;4.63;;
16193;SDS011;8204;53.582;10.080;2022-11-20T00:33:50;5.83;;;4.87;;
16193;SDS011;8204;53.582;10.080;2022-11-20T00:36:20;6.33;;;4.93;;
16193;SDS011;8204;53.582;10.080;2022-11-20T00:38:53;7.13;;;4.97;;
16193;SDS011;8204;53.582;10.080;2022-11-20T00:41:23;5.93;;;5.33;;
16193;SDS011;8204;53.582;10.080;2022-11-20T00:43:54;4.73;;;4.33;;
16193;SDS011;8204;53.582;10.080;2022-11-20T00:46:23;4.77;;;3.90;;
16193;SDS011;8204;53.582;10.080;2022-11-20T00:48:53;4.30;;;3.80;;
16193;SDS011;8204;53.582;10.080;2022-11-20T00:51:22;4.87;;;4.47;;
16193;SDS011;8204;53.582;10.080;2022-11-20T00:53:57;6.13;;;4.60;;
16193;SDS011;8204;53.582;10.080;2022-11-20T00:56:27;6.27;;;4.37;;
16193;SDS011;8204;53.582;10.080;2022-11-20T00:58:58;6.73;;;4.73;;
16193;SDS011;8204;53.582;10.080;2022-11-20T01:01:27;6.40;;;5.03;;
16193;SDS011;8204;53.582;10.080;2022-11-20T01:03:58;4.87;;;4.43;;
16193;SDS011;8204;53.582;10.080;2022-11-20T01:06:29;5.40;;;4.90;;
16193;SDS011;8204;53.582;10.080;2022-11-20T01:09:04;4.53;;;4.13;;
16193;SDS011;8204;53.582;10.080;2022-11-20T01:11:36;5.30;;;4.80;;
16193;SDS011;8204;53.582;10.080;2022-11-20T01:14:11;6.20;;;5.63;;
16193;SDS011;8204;53.582;10.080;2022-11-20T01:16:41;4.70;;;4.13;;
16193;SDS011;8204;53.582;10.080;2022-11-20T01:19:12;4.63;;;3.70;;
16193;SDS011;8204;53.582;10.080;2022-11-20T01:21:43;4.93;;;4.33;;
16193;SDS011;8204;53.582;10.080;2022-11-20T01:24:16;5.00;;;4.53;;
16193;SDS011;8204;53.582;10.080;2022-11-20T01:26:47;7.27;;;5.47;;
16193;SDS011;8204;53.582;10.080;2022-11-20T01:29:17;5.80;;;3.97;;
16193;SDS011;8204;53.582;10.080;2022-11-20T01:31:48;10.27;;;5.10;;
16193;SDS011;8204;53.582;10.080;2022-11-20T01:34:18;4.83;;;4.33;;
16193;SDS011;8204;53.582;10.080;2022-11-20T01:36:49;5.03;;;4.47;;
16193;SDS011;8204;53.582;10.080;2022-11-20T01:39:22;3.87;;;3.50;;
16193;SDS011;8204;53.582;10.080;2022-11-20T01:41:53;4.60;;;4.20;;
16193;SDS011;8204;53.582;10.080;2022-11-20T01:47:27;5.17;;;4.67;;
16193;SDS011;8204;53.582;10.080;2022-11-20T01:50:03;4.70;;;4.30;;
16193;SDS011;8204;53.582;10.080;2022-11-20T01:52:34;5.10;;;4.60;;
16193;SDS011;8204;53.582;10.080;2022-11-20T01:55:10;4.50;;;4.10;;
16193;SDS011;8204;53.582;10.080;2022-11-20T01:57:43;5.77;;;5.17;;
16193;SDS011;8204;53.582;10.080;2022-11-20T02:00:14;4.27;;;3.87;;
16193;SDS011;8204;53.582;10.080;2022-11-20T02:02:47;4.70;;;4.30;;
16193;SDS011;8204;53.582;10.080;2022-11-20T02:05:25;5.07;;;4.67;;
16193;SDS011;8204;53.582;10.080;2022-11-20T02:07:59;4.73;;;4.33;;
16193;SDS011;8204;53.582;10.080;2022-11-20T02:10:33;4.93;;;4.47;;
16193;SDS011;8204;53.582;10.080;2022-11-20T02:13:02;5.67;;;4.00;;
16193;SDS011;8204;53.582;10.080;2022-11-20T02:15:44;5.50;;;5.00;;
16193;SDS011;8204;53.582;10.080;2022-11-20T02:18:14;6.03;;;5.00;;
16193;SDS011;8204;53.582;10.080;2022-11-20T02:20:46;6.43;;;5.30;;
16193;SDS011;8204;53.582;10.080;2022-11-20T02:23:19;5.73;;;5.23;;
16193;SDS011;8204;53.582;10.080;2022-11-20T02:25:56;5.57;;;5.07;;
16193;SDS011;8204;53.582;10.080;2022-11-20T02:28:26;7.30;;;5.50;;
16193;SDS011;8204;53.582;10.080;2022-11-20T02:30:55;6.80;;;5.17;;
16193;SDS011;8204;53.582;10.080;2022-11-20T02:33:24;6.70;;;6.07;;
16193;SDS011;8204;53.582;10.080;2022-11-20T02:35:53;5.33;;;4.83;;
16193;SDS011;8204;53.582;10.080;2022-11-20T02:38:22;5.40;;;4.90;;
16193;SDS011;8204;53.582;10.080;2022-11-20T02:40:51;5.20;;;4.73;;
16193;SDS011;8204;53.582;10.080;2022-11-20T02:43:22;5.37;;;4.87;;
16193;SDS011;8204;53.582;10.080;2022-11-20T02:45:51;7.10;;;5.67;;
16193;SDS011;8204;53.582;10.080;2022-11-20T02:48:20;5.23;;;4.83;;
16193;SDS011;8204;53.582;10.080;2022-11-20T02:50:49;5.93;;;5.33;;
16193;SDS011;8204;53.582;10.080;2022-11-20T02:53:18;5.73;;;5.17;;
16193;SDS011;8204;53.582;10.080;2022-11-20T02:55:47;6.13;;;5.20;;
16193;SDS011;8204;53.582;10.080;2022-11-20T02:58:18;5.07;;;4.43;;
16193;SDS011;8204;53.582;10.080;2022-11-20T03:00:50;5.33;;;4.17;;
16193;SDS011;8204;53.582;10.080;2022-11-20T03:03:19;6.53;;;5.70;;
16193;SDS011;8204;53.582;10.080;2022-11-20T03:05:48;6.83;;;4.00;;
16193;SDS011;8204;53.582;10.080;2022-11-20T03:08:17;5.30;;;4.17;;
16193;SDS011;8204;53.582;10.080;2022-11-20T03:10:46;6.00;;;5.40;;
16193;SDS011;8204;53.582;10.080;2022-11-20T03:13:15;5.37;;;4.93;;
16193;SDS011;8204;53.582;10.080;2022-11-20T03:15:43;5.57;;;5.07;;
16193;SDS011;8204;53.582;10.080;2022-11-20T03:18:15;4.87;;;4.37;;
16193;SDS011;8204;53.582;10.080;2022-11-20T03:20:44;5.33;;;4.33;;
16193;SDS011;8204;53.582;10.080;2022-11-20T03:23:12;7.80;;;5.17;;
16193;SDS011;8204;53.582;10.080;2022-11-20T03:25:41;5.00;;;4.53;;
16193;SDS011;8204;53.582;10.080;2022-11-20T03:28:10;5.20;;;4.33;;
16193;SDS011;8204;53.582;10.080;2022-11-20T03:30:39;6.20;;;4.80;;
16193;SDS011;8204;53.582;10.080;2022-11-20T03:33:08;5.53;;;4.90;;
16193;SDS011;8204;53.582;10.080;2022-11-20T03:35:39;5.43;;;4.73;;
16193;SDS011;8204;53.582;10.080;2022-11-20T03:38:08;5.97;;;4.43;;
16193;SDS011;8204;53.582;10.080;2022-11-20T03:40:37;4.63;;;4.23;;
16193;SDS011;8204;53.582;10.080;2022-11-20T03:43:05;4.90;;;4.50;;
16193;SDS011;8204;53.582;10.080;2022-11-20T03:45:34;6.47;;;3.90;;
16193;SDS011;8204;53.582;10.080;2022-11-20T03:48:04;4.73;;;4.23;;
16193;SDS011;8204;53.582;10.080;2022-11-20T03:50:33;4.50;;;4.10;;
16193;SDS011;8204;53.582;10.080;2022-11-20T03:53:04;7.57;;;5.37;;
16193;SDS011;8204;53.582;10.080;2022-11-20T03:55:33;5.40;;;5.00;;
16193;SDS011;8204;53.582;10.080;2022-11-20T03:58:02;4.97;;;4.50;;
16193;SDS011;8204;53.582;10.080;2022-11-20T04:00:30;5.33;;;4.87;;
16193;SDS011;8204;53.582;10.080;2022-11-20T04:02:59;6.23;;;5.63;;
16193;SDS011;8204;53.582;10.080;2022-11-20T04:05:28;5.10;;;4.57;;
16193;SDS011;8204;53.582;10.080;2022-11-20T04:07:57;4.53;;;4.23;;
16193;SDS011;8204;53.582;10.080;2022-11-20T04:10:28;6.07;;;4.53;;
16193;SDS011;8204;53.582;10.080;2022-11-20T04:12:57;6.13;;;5.63;;
16193;SDS011;8204;53.582;10.080;2022-11-20T04:15:26;5.07;;;4.57;;
16193;SDS011;8204;53.582;10.080;2022-11-20T04:17:54;7.30;;;4.50;;
16193;SDS011;8204;53.582;10.080;2022-11-20T04:20:23;4.97;;;3.97;;
16193;SDS011;8204;53.582;10.080;2022-11-20T04:22:52;5.20;;;4.40;;
16193;SDS011;8204;53.582;10.080;2022-11-20T04:25:21;4.73;;;4.13;;
16193;SDS011;8204;53.582;10.080;2022-11-20T04:27:53;5.40;;;5.00;;
16193;SDS011;8204;53.582;10.080;2022-11-20T04:30:21;6.20;;;4.77;;
16193;SDS011;8204;53.582;10.080;2022-11-20T04:32:50;5.30;;;4.60;;
16193;SDS011;8204;53.582;10.080;2022-11-20T04:35:20;4.60;;;4.23;;
16193;SDS011;8204;53.582;10.080;2022-11-20T04:37:50;4.77;;;4.37;;
16193;SDS011;8204;53.582;10.080;2022-11-20T04:40:19;5.47;;;4.33;;
16193;SDS011;8204;53.582;10.080;2022-11-20T04:42:48;5.03;;;4.53;;
16193;SDS011;8204;53.582;10.080;2022-11-20T04:45:19;6.17;;;4.37;;
16193;SDS011;8204;53.582;10.080;2022-11-20T04:47:49;5.17;;;4.60;;
16193;SDS011;8204;53.582;10.080;2022-11-20T04:50:18;4.43;;;4.03;;
16193;SDS011;8204;53.582;10.080;2022-11-20T04:52:46;5.03;;;4.37;;
16193;SDS011;8204;53.582;10.080;2022-11-20T04:55:15;4.57;;;3.97;;
16193;SDS011;8204;53.582;10.080;2022-11-20T04:57:44;4.63;;;4.33;;
16193;SDS011;8204;53.582;10.080;2022-11-20T05:00:14;4.87;;;4.47;;
16193;SDS011;8204;53.582;10.080;2022-11-20T05:02:46;4.77;;;4.37;;
16193;SDS011;8204;53.582;10.080;2022-11-20T05:05:15;5.00;;;4.60;;
16193;SDS011;8204;53.582;10.080;2022-11-20T05:07:44;5.87;;;4.70;;
16193;SDS011;8204;53.582;10.080;2022-11-20T05:10:12;5.37;;;4.87;;
16193;SDS011;8204;53.582;10.080;2022-11-20T05:12:42;5.30;;;4.63;;
16193;SDS011;8204;53.582;10.080;2022-11-20T05:15:11;4.63;;;4.10;;
16193;SDS011;8204;53.582;10.080;2022-11-20T05:17:39;4.20;;;3.90;;
16193;SDS011;8204;53.582;10.080;2022-11-20T05:20:11;5.63;;;5.13;;
16193;SDS011;8204;53.582;10.080;2022-11-20T05:22:40;6.10;;;5.53;;
16193;SDS011;8204;53.582;10.080;2022-11-20T05:25:09;8.87;;;8.00;;
16193;SDS011;8204;53.582;10.080;2022-11-20T05:27:38;4.70;;;4.30;;
16193;SDS011;8204;53.582;10.080;2022-11-20T05:30:08;4.90;;;4.50;;
16193;SDS011;8204;53.582;10.080;2022-11-20T05:32:37;7.37;;;5.50;;
16193;SDS011;8204;53.582;10.080;2022-11-20T05:35:06;6.53;;;4.20;;
16193;SDS011;8204;53.582;10.080;2022-11-20T05:37:38;6.13;;;4.40;;
16193;SDS011;8204;53.582;10.080;2022-11-20T05:40:08;4.93;;;4.53;;
16193;SDS011;8204;53.582;10.080;2022-11-20T05:42:38;5.37;;;4.97;;
16193;SDS011;8204;53.582;10.080;2022-11-20T05:45:09;5.43;;;4.93;;
16193;SDS011;8204;53.582;10.080;2022-11-20T05:47:38;5.97;;;5.47;;
16193;SDS011;8204;53.582;10.080;2022-11-20T05:50:07;5.43;;;4.90;;
16193;SDS011;8204;53.582;10.080;2022-11-20T05:52:39;5.87;;;5.00;;
16193;SDS011;8204;53.582;10.080;2022-11-20T05:55:08;6.10;;;5.50;;
16193;SDS011;8204;53.582;10.080;2022-11-20T05:57:37;6.63;;;5.07;;
16193;SDS011;8204;53.582;10.080;2022-11-20T06:00:07;5.97;;;5.47;;
16193;SDS011;8204;53.582;10.080;2022-11-20T06:02:36;6.27;;;5.70;;
16193;SDS011;8204;53.582;10.080;2022-11-20T06:05:05;6.97;;;6.27;;
16193;SDS011;8204;53.582;10.080;2022-11-20T06:07:35;9.97;;;6.03;;
16193;SDS011;8204;53.582;10.080;2022-11-20T06:10:06;8.67;;;5.50;;
16193;SDS011;8204;53.582;10.080;2022-11-20T06:12:36;6.47;;;5.47;;
16193;SDS011;8204;53.582;10.080;2022-11-20T06:15:05;6.67;;;6.10;;
16193;SDS011;8204;53.582;10.080;2022-11-20T06:17:34;6.37;;;5.87;;
16193;SDS011;8204;53.582;10.080;2022-11-20T06:20:04;6.13;;;5.63;;
16193;SDS011;8204;53.582;10.080;2022-11-20T06:22:33;6.20;;;5.67;;
16193;SDS011;8204;53.582;10.080;2022-11-20T06:25:02;5.47;;;4.97;;
16193;SDS011;8204;53.582;10.080;2022-11-20T06:27:34;5.60;;;5.10;;
16193;SDS011;8204;53.582;10.080;2022-11-20T06:30:03;6.90;;;6.20;;
16193;SDS011;8204;53.582;10.080;2022-11-20T06:32:33;6.10;;;5.60;;
16193;SDS011;8204;53.582;10.080;2022-11-20T06:35:02;5.73;;;5.27;;
16193;SDS011;8204;53.582;10.080;2022-11-20T06:37:31;8.37;;;7.57;;
16193;SDS011;8204;53.582;10.080;2022-11-20T06:40:00;8.43;;;6.70;;
16193;SDS011;8204;53.582;10.080;2022-11-20T06:42:29;8.77;;;7.93;;
16193;SDS011;8204;53.582;10.080;2022-11-20T06:45:00;9.13;;;8.40;;
16193;SDS011;8204;53.582;10.080;2022-11-20T06:47:29;8.97;;;8.07;;
16193;SDS011;8204;53.582;10.080;2022-11-20T06:49:58;10.30;;;9.30;;
16193;SDS011;8204;53.582;10.080;2022-11-20T06:52:27;9.57;;;8.77;;
16193;SDS011;8204;53.582;10.080;2022-11-20T06:54:56;10.63;;;9.63;;
16193;SDS011;8204;53.582;10.080;2022-11-20T06:57:25;10.10;;;9.17;;
16193;SDS011;8204;53.582;10.080;2022-11-20T06:59:53;11.03;;;9.63;;
16193;SDS011;8204;53.582;10.080;2022-11-20T07:02:25;16.43;;;12.13;;
16193;SDS011;8204;53.582;10.080;2022-11-20T07:04:53;12.07;;;10.97;;
16193;SDS011;8204;53.582;10.080;2022-11-20T07:07:23;11.30;;;10.30;;
16193;SDS011;8204;53.582;10.080;2022-11-20T07:09:52;14.13;;;11.53;;
16193;SDS011;8204;53.582;10.080;2022-11-20T07:12:20;10.07;;;9.17;;
16193;SDS011;8204;53.582;10.080;2022-11-20T07:14:49;10.87;;;9.10;;
16193;SDS011;8204;53.582;10.080;2022-11-20T07:17:18;9.17;;;8.27;;
16193;SDS011;8204;53.582;10.080;2022-11-20T07:19:49;8.77;;;7.17;;
16193;SDS011;8204;53.582;10.080;2022-11-20T07:22:18;7.63;;;7.03;;
16193;SDS011;8204;53.582;10.080;2022-11-20T07:24:47;8.33;;;7.47;;
16193;SDS011;8204;53.582;10.080;2022-11-20T07:27:16;7.77;;;7.07;;
16193;SDS011;8204;53.582;10.080;2022-11-20T07:29:44;8.23;;;7.27;;
16193;SDS011;8204;53.582;10.080;2022-11-20T07:32:14;6.77;;;6.17;;
16193;SDS011;8204;53.582;10.080;2022-11-20T07:34:43;8.03;;;6.80;;
16193;SDS011;8204;53.582;10.080;2022-11-20T07:37:14;9.43;;;6.53;;
16193;SDS011;8204;53.582;10.080;2022-11-20T07:39:44;7.67;;;6.87;;
16193;SDS011;8204;53.582;10.080;2022-11-20T07:42:13;7.20;;;6.60;;
16193;SDS011;8204;53.582;10.080;2022-11-20T07:44:41;6.90;;;6.23;;
16193;SDS011;8204;53.582;10.080;2022-11-20T07:47:11;10.53;;;6.90;;
16193;SDS011;8204;53.582;10.080;2022-11-20T07:49:40;7.03;;;6.47;;
16193;SDS011;8204;53.582;10.080;2022-11-20T07:52:09;5.97;;;5.47;;
16193;SDS011;8204;53.582;10.080;2022-11-20T07:54:40;7.43;;;6.83;;
16193;SDS011;8204;53.582;10.080;2022-11-20T07:57:09;6.70;;;6.10;;
16193;SDS011;8204;53.582;10.080;2022-11-20T07:59:38;7.77;;;6.97;;
16193;SDS011;8204;53.582;10.080;2022-11-20T08:02:09;6.30;;;5.80;;
16193;SDS011;8204;53.582;10.080;2022-11-20T08:04:38;5.87;;;5.37;;
16193;SDS011;8204;53.582;10.080;2022-11-20T08:07:07;6.97;;;5.80;;
16193;SDS011;8204;53.582;10.080;2022-11-20T08:09:35;8.13;;;7.43;;
16193;SDS011;8204;53.582;10.080;2022-11-20T08:12:07;8.33;;;7.53;;
16193;SDS011;8204;53.582;10.080;2022-11-20T08:14:48;7.43;;;6.77;;
16193;SDS011;8204;53.582;10.080;2022-11-20T08:17:17;8.33;;;7.53;;
16193;SDS011;8204;53.582;10.080;2022-11-20T08:19:46;7.73;;;6.83;;
16193;SDS011;8204;53.582;10.080;2022-11-20T08:22:15;8.07;;;7.27;;
16193;SDS011;8204;53.582;10.080;2022-11-20T08:24:44;7.17;;;6.53;;
16193;SDS011;8204;53.582;10.080;2022-11-20T08:27:16;7.43;;;6.70;;
16193;SDS011;8204;53.582;10.080;2022-11-20T08:29:45;7.37;;;6.67;;
16193;SDS011;8204;53.582;10.080;2022-11-20T08:32:14;7.53;;;6.60;;
16193;SDS011;8204;53.582;10.080;2022-11-20T08:34:43;5.70;;;5.20;;
16193;SDS011;8204;53.582;10.080;2022-11-20T08:37:12;5.30;;;4.90;;
16193;SDS011;8204;53.582;10.080;2022-11-20T08:39:41;6.13;;;5.53;;
16193;SDS011;8204;53.582;10.080;2022-11-20T08:42:09;5.30;;;4.40;;
16193;SDS011;8204;53.582;10.080;2022-11-20T08:44:42;4.60;;;4.20;;
16193;SDS011;8204;53.582;10.080;2022-11-20T08:47:11;6.13;;;4.53;;
16193;SDS011;8204;53.582;10.080;2022-11-20T08:49:39;5.87;;;5.37;;
16193;SDS011;8204;53.582;10.080;2022-11-20T08:52:09;4.93;;;4.53;;
16193;SDS011;8204;53.582;10.080;2022-11-20T08:54:37;4.67;;;4.33;;
16193;SDS011;8204;53.582;10.080;2022-11-20T08:57:06;4.97;;;4.50;;
16193;SDS011;8204;53.582;10.080;2022-11-20T08:59:35;4.47;;;4.07;;
16193;SDS011;8204;53.582;10.080;2022-11-20T09:02:07;5.00;;;4.60;;
16193;SDS011;8204;53.582;10.080;2022-11-20T09:04:36;4.67;;;4.27;;
16193;SDS011;8204;53.582;10.080;2022-11-20T09:07:04;4.13;;;3.73;;
16193;SDS011;8204;53.582;10.080;2022-11-20T09:09:34;4.67;;;4.27;;
16193;SDS011;8204;53.582;10.080;2022-11-20T09:12:03;4.40;;;4.07;;
16193;SDS011;8204;53.582;10.080;2022-11-20T09:14:33;4.20;;;3.70;;
16193;SDS011;8204;53.582;10.080;2022-11-20T09:17:02;4.13;;;3.83;;
16193;SDS011;8204;53.582;10.080;2022-11-20T09:19:35;4.87;;;4.47;;
16193;SDS011;8204;53.582;10.080;2022-11-20T09:22:04;4.63;;;4.23;;
16193;SDS011;8204;53.582;10.080;2022-11-20T09:24:33;5.00;;;4.50;;
16193;SDS011;8204;53.582;10.080;2022-11-20T09:27:02;5.47;;;4.50;;
16193;SDS011;8204;53.582;10.080;2022-11-20T09:29:32;4.37;;;4.07;;
16193;SDS011;8204;53.582;10.080;2022-11-20T09:32:01;4.33;;;4.03;;
16193;SDS011;8204;53.582;10.080;2022-11-20T09:34:30;3.57;;;3.27;;
16193;SDS011;8204;53.582;10.080;2022-11-20T09:37:01;4.80;;;4.47;;
16193;SDS011;8204;53.582;10.080;2022-11-20T09:39:30;4.37;;;3.97;;
16193;SDS011;8204;53.582;10.080;2022-11-20T09:42:04;4.60;;;4.20;;
16193;SDS011;8204;53.582;10.080;2022-11-20T09:45:01;7.07;;;6.47;;
16193;SDS011;8204;53.582;10.080;2022-11-20T09:47:50;5.47;;;4.90;;
16193;SDS011;8204;53.582;10.080;2022-11-20T09:50:42;5.17;;;4.77;;
16193;SDS011;8204;53.582;10.080;2022-11-20T09:53:19;4.90;;;4.50;;
16193;SDS011;8204;53.582;10.080;2022-11-20T09:55:56;5.00;;;4.60;;
16193;SDS011;8204;53.582;10.080;2022-11-20T09:58:28;5.43;;;5.03;;
16193;SDS011;8204;53.582;10.080;2022-11-20T10:01:03;5.47;;;5.07;;
16193;SDS011;8204;53.582;10.080;2022-11-20T10:03:41;5.93;;;5.33;;
16193;SDS011;8204;53.582;10.080;2022-11-20T10:06:18;4.53;;;4.23;;
16193;SDS011;8204;53.582;10.080;2022-11-20T10:11:33;6.03;;;4.60;;
16193;SDS011;8204;53.582;10.080;2022-11-20T10:14:13;4.60;;;4.20;;
16193;SDS011;8204;53.582;10.080;2022-11-20T10:16:52;5.30;;;4.90;;
16193;SDS011;8204;53.582;10.080;2022-11-20T10:19:34;5.80;;;5.27;;
16193;SDS011;8204;53.582;10.080;2022-11-20T10:22:17;8.87;;;6.87;;
16193;SDS011;8204;53.582;10.080;2022-11-20T10:24:59;5.73;;;5.23;;
16193;SDS011;8204;53.582;10.080;2022-11-20T10:27:37;6.13;;;5.63;;
16193;SDS011;8204;53.582;10.080;2022-11-20T10:30:17;4.87;;;4.27;;
16193;SDS011;8204;53.582;10.080;2022-11-20T10:32:52;5.80;;;5.30;;
16193;SDS011;8204;53.582;10.080;2022-11-20T10:35:25;5.57;;;5.07;;
16193;SDS011;8204;53.582;10.080;2022-11-20T10:38:00;5.30;;;4.63;;
16193;SDS011;8204;53.582;10.080;2022-11-20T10:40:35;4.93;;;4.47;;
16193;SDS011;8204;53.582;10.080;2022-11-20T10:43:10;4.50;;;4.10;;
16193;SDS011;8204;53.582;10.080;2022-11-20T10:45:45;6.10;;;5.60;;
16193;SDS011;8204;53.582;10.080;2022-11-20T10:48:19;8.10;;;6.80;;
16193;SDS011;8204;53.582;10.080;2022-11-20T10:50:54;4.53;;;4.13;;
16193;SDS011;8204;53.582;10.080;2022-11-20T10:53:36;5.67;;;5.07;;
16193;SDS011;8204;53.582;10.080;2022-11-20T10:56:17;4.73;;;4.33;;
16193;SDS011;8204;53.582;10.080;2022-11-20T10:58:52;5.07;;;4.20;;
16193;SDS011;8204;53.582;10.080;2022-11-20T11:01:31;5.40;;;4.97;;
16193;SDS011;8204;53.582;10.080;2022-11-20T11:04:18;4.77;;;4.37;;
16193;SDS011;8204;53.582;10.080;2022-11-20T11:07:02;4.90;;;4.50;;
16193;SDS011;8204;53.582;10.080;2022-11-20T11:09:37;6.23;;;4.37;;
16193;SDS011;8204;53.582;10.080;2022-11-20T11:12:11;4.30;;;4.00;;
16193;SDS011;8204;53.582;10.080;2022-11-20T11:14:42;4.30;;;4.00;;
16193;SDS011;8204;53.582;10.080;2022-11-20T11:17:22;5.37;;;4.97;;
16193;SDS011;8204;53.582;10.080;2022-11-20T11:20:04;5.00;;;4.60;;
16193;SDS011;8204;53.582;10.080;2022-11-20T11:22:44;5.17;;;4.77;;
16193;SDS011;8204;53.582;10.080;2022-11-20T11:25:27;4.20;;;3.90;;
16193;SDS011;8204;53.582;10.080;2022-11-20T11:28:03;5.27;;;4.70;;
16193;SDS011;8204;53.582;10.080;2022-11-20T11:30:40;5.20;;;4.80;;
16193;SDS011;8204;53.582;10.080;2022-11-20T11:33:11;5.03;;;4.53;;
16193;SDS011;8204;53.582;10.080;2022-11-20T11:35:47;4.17;;;3.87;;
16193;SDS011;8204;53.582;10.080;2022-11-20T11:38:19;4.93;;;4.10;;
16193;SDS011;8204;53.582;10.080;2022-11-20T11:40:52;5.23;;;4.50;;
16193;SDS011;8204;53.582;10.080;2022-11-20T11:43:26;4.70;;;4.40;;
16193;SDS011;8204;53.582;10.080;2022-11-20T11:46:30;3.70;;;3.43;;
16193;SDS011;8204;53.582;10.080;2022-11-20T11:49:01;4.17;;;3.87;;
16193;SDS011;8204;53.582;10.080;2022-11-20T11:51:56;4.27;;;3.97;;
16193;SDS011;8204;53.582;10.080;2022-11-20T11:54:30;3.43;;;3.20;;
16193;SDS011;8204;53.582;10.080;2022-11-20T11:57:05;3.90;;;3.60;;
16193;SDS011;8204;53.582;10.080;2022-11-20T11:59:46;4.17;;;3.77;;
16193;SDS011;8204;53.582;10.080;2022-11-20T12:02:26;3.03;;;2.83;;
16193;SDS011;8204;53.582;10.080;2022-11-20T12:05:03;3.87;;;3.57;;
16193;SDS011;8204;53.582;10.080;2022-11-20T12:07:43;2.83;;;2.63;;
16193;SDS011;8204;53.582;10.080;2022-11-20T12:10:17;4.17;;;3.77;;
16193;SDS011;8204;53.582;10.080;2022-11-20T12:12:53;3.50;;;3.20;;
16193;SDS011;8204;53.582;10.080;2022-11-20T12:15:32;3.87;;;3.67;;
16193;SDS011;8204;53.582;10.080;2022-11-20T12:18:04;4.50;;;4.10;;
16193;SDS011;8204;53.582;10.080;2022-11-20T12:20:41;3.27;;;3.03;;
16193;SDS011;8204;53.582;10.080;2022-11-20T12:23:15;3.87;;;2.90;;
16193;SDS011;8204;53.582;10.080;2022-11-20T12:25:51;3.30;;;3.10;;
16193;SDS011;8204;53.582;10.080;2022-11-20T12:28:28;3.37;;;3.13;;
16193;SDS011;8204;53.582;10.080;2022-11-20T12:31:14;4.00;;;3.33;;
16193;SDS011;8204;53.582;10.080;2022-11-20T12:34:12;2.97;;;2.77;;
16193;SDS011;8204;53.582;10.080;2022-11-20T12:36:56;3.90;;;3.50;;
16193;SDS011;8204;53.582;10.080;2022-11-20T12:39:35;4.60;;;3.33;;
16193;SDS011;8204;53.582;10.080;2022-11-20T12:42:14;3.93;;;3.63;;
16193;SDS011;8204;53.582;10.080;2022-11-20T12:45:10;4.00;;;3.70;;
16193;SDS011;8204;53.582;10.080;2022-11-20T12:48:07;4.03;;;3.73;;
16193;SDS011;8204;53.582;10.080;2022-11-20T12:50:49;3.90;;;3.60;;
16193;SDS011;8204;53.582;10.080;2022-11-20T12:53:37;3.77;;;3.47;;
16193;SDS011;8204;53.582;10.080;2022-11-20T12:56:15;3.53;;;3.30;;
16193;SDS011;8204;53.582;10.080;2022-11-20T12:58:57;3.80;;;3.50;;
16193;SDS011;8204;53.582;10.080;2022-11-20T13:01:40;3.37;;;3.07;;
16193;SDS011;8204;53.582;10.080;2022-11-20T13:04:23;7.90;;;4.57;;
16193;SDS011;8204;53.582;10.080;2022-11-20T13:07:02;3.77;;;3.47;;
16193;SDS011;8204;53.582;10.080;2022-11-20T13:09:33;3.67;;;3.37;;
16193;SDS011;8204;53.582;10.080;2022-11-20T13:12:08;4.33;;;4.03;;
16193;SDS011;8204;53.582;10.080;2022-11-20T13:14:42;3.77;;;3.47;;
16193;SDS011;8204;53.582;10.080;2022-11-20T13:17:19;4.87;;;4.40;;
16193;SDS011;8204;53.582;10.080;2022-11-20T13:19:57;3.90;;;3.60;;
16193;SDS011;8204;53.582;10.080;2022-11-20T13:22:27;4.63;;;4.33;;
16193;SDS011;8204;53.582;10.080;2022-11-20T13:24:58;4.33;;;4.03;;
16193;SDS011;8204;53.582;10.080;2022-11-20T13:27:27;7.50;;;6.80;;
16193;SDS011;8204;53.582;10.080;2022-11-20T13:30:00;4.97;;;4.57;;
16193;SDS011;8204;53.582;10.080;2022-11-20T13:32:47;4.17;;;3.87;;
16193;SDS011;8204;53.582;10.080;2022-11-20T13:35:30;4.40;;;4.10;;
16193;SDS011;8204;53.582;10.080;2022-11-20T13:38:04;4.40;;;4.10;;
16193;SDS011;8204;53.582;10.080;2022-11-20T13:40:36;4.93;;;4.53;;
16193;SDS011;8204;53.582;10.080;2022-11-20T13:43:18;3.87;;;3.43;;
16193;SDS011;8204;53.582;10.080;2022-11-20T13:45:54;3.60;;;3.40;;
16193;SDS011;8204;53.582;10.080;2022-11-20T13:48:26;3.60;;;3.30;;
16193;SDS011;8204;53.582;10.080;2022-11-20T13:51:04;4.00;;;3.70;;
16193;SDS011;8204;53.582;10.080;2022-11-20T13:53:45;3.93;;;3.63;;
16193;SDS011;8204;53.582;10.080;2022-11-20T13:56:24;3.53;;;3.23;;
16193;SDS011;8204;53.582;10.080;2022-11-20T13:59:02;3.60;;;3.40;;
16193;SDS011;8204;53.582;10.080;2022-11-20T14:01:40;4.13;;;3.83;;
16193;SDS011;8204;53.582;10.080;2022-11-20T14:04:13;3.83;;;3.53;;
16193;SDS011;8204;53.582;10.080;2022-11-20T14:06:49;3.90;;;3.60;;
16193;SDS011;8204;53.582;10.080;2022-11-20T14:09:24;3.43;;;3.23;;
16193;SDS011;8204;53.582;10.080;2022-11-20T14:11:54;5.27;;;4.23;;
16193;SDS011;8204;53.582;10.080;2022-11-20T14:14:24;4.40;;;3.83;;
16193;SDS011;8204;53.582;10.080;2022-11-20T14:17:04;4.57;;;4.17;;
16193;SDS011;8204;53.582;10.080;2022-11-20T14:19:34;7.03;;;4.37;;
16193;SDS011;8204;53.582;10.080;2022-11-20T14:22:10;4.13;;;3.80;;
16193;SDS011;8204;53.582;10.080;2022-11-20T14:24:45;4.50;;;4.10;;
16193;SDS011;8204;53.582;10.080;2022-11-20T14:27:15;4.47;;;4.07;;
16193;SDS011;8204;53.582;10.080;2022-11-20T14:29:46;3.80;;;3.50;;
16193;SDS011;8204;53.582;10.080;2022-11-20T14:32:17;4.00;;;3.70;;
16193;SDS011;8204;53.582;10.080;2022-11-20T14:34:48;3.70;;;3.40;;
16193;SDS011;8204;53.582;10.080;2022-11-20T14:37:23;5.10;;;4.70;;
16193;SDS011;8204;53.582;10.080;2022-11-20T14:39:54;5.70;;;5.20;;
16193;SDS011;8204;53.582;10.080;2022-11-20T14:42:24;3.47;;;3.20;;
16193;SDS011;8204;53.582;10.080;2022-11-20T14:44:56;3.77;;;3.47;;
16193;SDS011;8204;53.582;10.080;2022-11-20T14:47:27;6.63;;;4.77;;
16193;SDS011;8204;53.582;10.080;2022-11-20T14:49:58;3.83;;;3.53;;
16193;SDS011;8204;53.582;10.080;2022-11-20T14:52:31;3.80;;;3.50;;
16193;SDS011;8204;53.582;10.080;2022-11-20T14:55:01;3.90;;;3.60;;
16193;SDS011;8204;53.582;10.080;2022-11-20T14:57:30;4.30;;;3.27;;
16193;SDS011;8204;53.582;10.080;2022-11-20T15:00:08;4.13;;;3.80;;
16193;SDS011;8204;53.582;10.080;2022-11-20T15:02:49;4.13;;;3.83;;
16193;SDS011;8204;53.582;10.080;2022-11-20T15:05:20;4.40;;;4.00;;
16193;SDS011;8204;53.582;10.080;2022-11-20T15:08:04;5.77;;;5.37;;
16193;SDS011;8204;53.582;10.080;2022-11-20T15:10:39;4.53;;;4.13;;
16193;SDS011;8204;53.582;10.080;2022-11-20T15:13:15;4.57;;;4.17;;
16193;SDS011;8204;53.582;10.080;2022-11-20T15:15:48;4.47;;;4.10;;
16193;SDS011;8204;53.582;10.080;2022-11-20T15:18:19;4.60;;;4.27;;
16193;SDS011;8204;53.582;10.080;2022-11-20T15:20:49;5.57;;;5.07;;
16193;SDS011;8204;53.582;10.080;2022-11-20T15:23:22;4.80;;;4.40;;
16193;SDS011;8204;53.582;10.080;2022-11-20T15:25:51;7.20;;;4.17;;